Time;durP1;ratioP1;P1;durP2;ratioP2;P2;SDS_P1;SDS_P2;PMS_P1;PMS_P2;Temp;Humidity;BMP_temperature;BMP_pressure;BME280_temperature;BME280_humidity;BME280_pressure;Samples;Min_cycle;Max_cycle;Signal;HPM_P1;HPM_P2
2024/04/11 00:00:57;;;;;;;9.80;8.17;;;13.50;99.90;;;;;;5383944;26;20403;-58
2024/04/11 00:03:24;;;;;;;11.47;7.80;;;13.50;99.90;;;;;;5422225;26;20843;-58
2024/04/11 00:05:53;;;;;;;10.53;8.50;;;13.40;99.90;;;;;;5415210;26;20239;-58
2024/04/11 00:08:21;;;;;;;9.67;8.20;;;13.40;99.90;;;;;;5420815;26;20246;-58
2024/04/11 00:10:49;;;;;;;12.57;8.70;;;13.40;99.90;;;;;;5406917;26;20293;-58
2024/04/11 00:13:18;;;;;;;13.87;8.70;;;13.40;99.90;;;;;;5423351;26;20266;-58
2024/04/11 00:15:46;;;;;;;12.43;10.07;;;13.40;99.90;;;;;;5413234;26;20353;-58
2024/04/11 00:18:13;;;;;;;13.83;9.23;;;13.40;99.90;;;;;;5413535;26;20240;-58
2024/04/11 00:20:41;;;;;;;14.67;9.07;;;13.40;99.90;;;;;;5387265;26;20266;-58
2024/04/11 00:23:09;;;;;;;12.03;9.60;;;13.40;99.90;;;;;;5419552;26;20248;-58
2024/04/11 00:25:36;;;;;;;10.50;9.33;;;13.40;99.90;;;;;;5415015;26;20263;-58
2024/04/11 00:28:04;;;;;;;15.83;9.43;;;13.30;99.90;;;;;;5418100;26;20321;-58
2024/04/11 00:30:32;;;;;;;11.80;9.23;;;13.30;99.90;;;;;;5424598;26;20281;-58
2024/04/11 00:32:59;;;;;;;11.40;9.50;;;13.30;99.90;;;;;;5421766;26;20295;-58
2024/04/11 00:35:27;;;;;;;12.37;9.97;;;13.30;99.90;;;;;;5420083;26;20318;-58
2024/04/11 00:37:55;;;;;;;13.97;10.77;;;13.30;99.90;;;;;;5385353;26;20908;-58
2024/04/11 00:40:24;;;;;;;13.23;9.73;;;13.30;99.90;;;;;;5418321;26;20251;-58
2024/04/11 00:42:52;;;;;;;15.20;10.13;;;13.30;99.90;;;;;;5423142;26;20252;-58
2024/04/11 00:45:20;;;;;;;12.13;10.27;;;13.30;99.90;;;;;;5420776;26;20278;-58
2024/04/11 00:47:50;;;;;;;12.83;10.37;;;13.30;99.90;;;;;;5424012;26;20281;-58
2024/04/11 00:50:20;;;;;;;13.53;10.50;;;13.30;99.90;;;;;;5421573;26;20236;-58
2024/04/11 00:52:50;;;;;;;11.87;10.07;;;13.30;99.90;;;;;;5424859;26;20347;-58
2024/04/11 00:55:18;;;;;;;12.87;11.57;;;13.30;99.90;;;;;;5428323;26;20282;-58
2024/04/11 00:57:46;;;;;;;10.90;9.60;;;13.30;99.90;;;;;;5415774;26;20707;-58
2024/04/11 01:00:14;;;;;;;12.67;10.43;;;13.30;99.90;;;;;;5422014;26;20575;-58
2024/04/11 01:02:42;;;;;;;19.27;10.97;;;13.30;99.90;;;;;;5421258;26;20245;-58
2024/04/11 01:05:10;;;;;;;14.37;10.33;;;13.40;99.90;;;;;;5395921;26;20247;-58
2024/04/11 01:07:39;;;;;;;13.90;10.77;;;13.40;99.90;;;;;;5421557;26;20239;-58
2024/04/11 01:10:08;;;;;;;14.03;11.07;;;13.40;99.90;;;;;;5385838;26;20623;-58
2024/04/11 01:12:35;;;;;;;14.97;11.63;;;13.40;99.90;;;;;;5422633;26;20232;-58
2024/04/11 01:15:02;;;;;;;20.53;13.07;;;13.40;99.90;;;;;;5411877;26;20282;-58
2024/04/11 01:17:30;;;;;;;18.63;12.03;;;13.40;99.90;;;;;;5422424;26;20262;-58
2024/04/11 01:19:59;;;;;;;15.83;12.40;;;13.40;99.90;;;;;;5417150;26;20239;-58
2024/04/11 01:22:26;;;;;;;14.07;11.90;;;13.40;99.90;;;;;;5418196;26;20251;-59
2024/04/11 01:24:57;;;;;;;17.03;13.57;;;13.40;99.90;;;;;;5415091;26;20290;-57
2024/04/11 01:27:25;;;;;;;17.57;13.23;;;13.40;99.90;;;;;;5449604;26;20331;-59
2024/04/11 01:29:53;;;;;;;19.00;13.53;;;13.40;99.90;;;;;;5421101;26;20742;-58
2024/04/11 01:32:22;;;;;;;19.53;14.57;;;13.40;99.90;;;;;;5380087;26;20305;-58
2024/04/11 01:34:56;;;;;;;16.90;14.30;;;13.40;99.90;;;;;;5413071;26;20248;-58
2024/04/11 01:37:28;;;;;;;21.93;16.10;;;13.40;99.90;;;;;;5422030;26;20246;-58
2024/04/11 01:39:56;;;;;;;21.83;14.67;;;13.40;99.90;;;;;;5421599;26;20243;-58
2024/04/11 01:42:23;;;;;;;19.13;14.73;;;13.40;99.90;;;;;;5420313;26;20301;-58
2024/04/11 01:44:51;;;;;;;21.27;17.07;;;13.40;99.90;;;;;;5426517;26;20250;-58
2024/04/11 01:47:18;;;;;;;22.37;17.73;;;13.30;99.90;;;;;;5415556;26;20289;-58
2024/04/11 01:49:46;;;;;;;19.30;16.43;;;13.40;99.90;;;;;;5419110;26;20344;-58
2024/04/11 01:52:13;;;;;;;24.27;17.20;;;13.30;99.90;;;;;;5422486;26;20284;-59
2024/04/11 01:54:41;;;;;;;25.17;17.40;;;13.30;99.90;;;;;;5422001;26;20308;-58
2024/04/11 01:57:10;;;;;;;21.63;17.37;;;13.30;99.90;;;;;;5388708;26;20316;-58
2024/04/11 01:59:38;;;;;;;22.67;18.27;;;13.30;99.90;;;;;;5424497;26;20251;-60
2024/04/11 02:02:08;;;;;;;23.73;19.17;;;13.30;99.90;;;;;;5423120;26;20575;-58
2024/04/11 02:04:35;;;;;;;23.57;19.53;;;13.30;99.90;;;;;;5423350;26;20348;-58
2024/04/11 02:07:04;;;;;;;21.90;18.33;;;13.30;99.90;;;;;;5420830;26;20293;-58
2024/04/11 02:09:34;;;;;;;26.53;18.80;;;13.30;99.90;;;;;;5423591;26;20612;-58
2024/04/11 02:12:01;;;;;;;26.50;19.13;;;13.30;99.90;;;;;;5418120;26;20243;-58
2024/04/11 02:14:30;;;;;;;25.03;18.60;;;13.30;99.90;;;;;;5417479;26;20555;-58
2024/04/11 02:16:59;;;;;;;26.80;20.20;;;13.30;99.90;;;;;;5386601;26;20559;-58
2024/04/11 02:19:28;;;;;;;23.97;18.33;;;13.30;99.90;;;;;;5415519;26;20739;-58
2024/04/11 02:21:56;;;;;;;23.30;19.00;;;13.20;99.90;;;;;;5425422;26;20250;-58
2024/04/11 02:24:23;;;;;;;20.67;17.47;;;13.20;99.90;;;;;;5427087;26;20243;-58
2024/04/11 02:26:52;;;;;;;29.17;20.27;;;13.20;99.90;;;;;;5428017;26;20239;-58
2024/04/11 02:29:20;;;;;;;22.77;19.10;;;13.20;99.90;;;;;;5439287;26;20818;-58
2024/04/11 02:31:50;;;;;;;26.57;19.50;;;13.20;99.90;;;;;;5423129;26;20306;-58
2024/04/11 02:34:18;;;;;;;24.43;19.30;;;13.10;99.90;;;;;;5408236;26;21002;-58
2024/04/11 02:36:47;;;;;;;25.40;20.07;;;13.10;99.90;;;;;;5447097;26;20239;-58
2024/04/11 02:39:17;;;;;;;27.20;19.60;;;13.10;99.90;;;;;;5381773;26;20282;-58
2024/04/11 02:41:46;;;;;;;26.23;19.33;;;13.00;99.90;;;;;;5414986;26;20755;-58
2024/04/11 02:44:14;;;;;;;25.27;18.47;;;13.00;99.90;;;;;;5425469;26;20688;-58
2024/04/11 02:46:43;;;;;;;22.13;18.70;;;13.00;99.90;;;;;;5393375;26;20332;-59
2024/04/11 02:49:11;;;;;;;22.13;18.20;;;13.00;99.90;;;;;;5412427;26;20248;-58
2024/04/11 02:51:39;;;;;;;23.53;18.30;;;12.90;99.90;;;;;;5420878;26;20573;-58
2024/04/11 02:54:07;;;;;;;27.17;18.90;;;12.90;99.90;;;;;;5426040;26;20236;-58
2024/04/11 02:56:36;;;;;;;26.00;19.83;;;12.90;99.90;;;;;;5422022;26;20274;-58
2024/04/11 02:59:04;;;;;;;22.30;18.33;;;12.80;99.90;;;;;;5421781;26;20246;-58
2024/04/11 03:01:32;;;;;;;24.13;18.00;;;12.80;99.90;;;;;;5414513;26;20656;-58
2024/04/11 03:04:01;;;;;;;26.03;20.23;;;12.80;99.90;;;;;;5448664;26;20305;-58
2024/04/11 03:06:35;;;;;;;23.60;19.30;;;12.80;99.90;;;;;;5431624;26;20236;-58
2024/04/11 03:09:03;;;;;;;23.83;18.60;;;12.80;99.90;;;;;;5394844;26;20245;-58
2024/04/11 03:11:37;;;;;;;23.87;18.90;;;12.90;99.90;;;;;;5419935;26;20244;-58
2024/04/11 03:14:06;;;;;;;23.43;19.10;;;12.80;99.90;;;;;;5414845;26;20360;-58
2024/04/11 03:16:34;;;;;;;27.77;19.27;;;12.80;99.90;;;;;;5420465;26;20262;-58
2024/04/11 03:19:03;;;;;;;22.63;17.13;;;12.80;99.90;;;;;;5414700;26;20250;-58
2024/04/11 03:21:31;;;;;;;21.87;17.80;;;12.80;99.90;;;;;;5415615;26;20248;-58
2024/04/11 03:23:59;;;;;;;23.50;18.03;;;12.80;99.90;;;;;;5392251;26;20235;-58
2024/04/11 03:26:28;;;;;;;24.37;17.83;;;12.80;99.90;;;;;;5412482;26;20252;-58
2024/04/11 03:28:56;;;;;;;22.90;17.67;;;12.80;99.90;;;;;;5401263;26;20252;-58
2024/04/11 03:31:23;;;;;;;21.00;16.67;;;12.80;99.90;;;;;;5415682;26;20299;-58
2024/04/11 03:33:51;;;;;;;21.50;16.77;;;12.80;99.90;;;;;;5421045;26;20631;-58
2024/04/11 03:36:19;;;;;;;22.87;16.40;;;12.80;99.90;;;;;;5417512;26;20627;-58
2024/04/11 03:38:54;;;;;;;21.50;16.47;;;12.70;99.90;;;;;;5419513;26;20243;-58
2024/04/11 03:41:22;;;;;;;19.83;17.27;;;12.80;99.90;;;;;;5414482;26;20765;-58
2024/04/11 03:43:54;;;;;;;21.23;16.40;;;12.70;99.90;;;;;;5424692;26;20294;-58
2024/04/11 03:46:23;;;;;;;26.90;16.80;;;12.70;99.90;;;;;;5419081;26;20278;-58
2024/04/11 03:48:55;;;;;;;23.47;16.40;;;12.70;99.90;;;;;;5413211;26;20243;-58
2024/04/11 03:51:28;;;;;;;19.90;16.40;;;12.70;99.90;;;;;;5415713;26;20246;-58
2024/04/11 03:53:56;;;;;;;21.03;17.10;;;12.70;99.90;;;;;;5421468;26;20302;-58
2024/04/11 03:56:27;;;;;;;22.07;17.07;;;12.70;99.90;;;;;;5416477;26;20247;-58
2024/04/11 03:58:56;;;;;;;21.60;17.83;;;12.70;99.90;;;;;;5420542;26;20304;-58
2024/04/11 04:01:26;;;;;;;25.03;18.13;;;12.60;99.90;;;;;;5425732;26;20238;-58
2024/04/11 04:04:02;;;;;;;20.50;15.30;;;12.60;99.90;;;;;;5428905;26;20252;-58
2024/04/11 04:06:33;;;;;;;20.93;15.10;;;12.60;99.90;;;;;;5424197;26;20242;-58
2024/04/11 04:09:07;;;;;;;18.20;15.90;;;12.50;99.90;;;;;;5413901;26;20774;-58
2024/04/11 04:11:37;;;;;;;19.40;15.70;;;12.50;99.90;;;;;;5418026;26;20641;-58
2024/04/11 04:14:08;;;;;;;20.50;17.17;;;12.50;99.90;;;;;;5416534;26;20604;-59
2024/04/11 04:16:41;;;;;;;22.40;16.43;;;12.50;99.90;;;;;;5417033;26;20246;-58
2024/04/11 04:19:10;;;;;;;24.37;15.83;;;12.50;99.90;;;;;;5417434;26;20246;-58
2024/04/11 04:21:37;;;;;;;23.70;16.97;;;12.50;99.90;;;;;;5416932;26;20289;-58
2024/04/11 04:24:05;;;;;;;23.00;16.30;;;12.50;99.90;;;;;;5425307;26;20688;-58
2024/04/11 04:26:34;;;;;;;19.30;15.87;;;12.40;99.90;;;;;;5422475;26;20692;-58
2024/04/11 04:29:03;;;;;;;19.13;15.53;;;12.40;99.90;;;;;;5416621;26;20243;-58
2024/04/11 04:31:32;;;;;;;19.90;15.63;;;12.40;99.90;;;;;;5417782;26;20239;-58
2024/04/11 04:34:03;;;;;;;18.80;14.83;;;12.30;99.90;;;;;;5418206;26;20239;-58
2024/04/11 04:36:39;;;;;;;21.70;17.37;;;12.30;99.90;;;;;;5424282;26;20782;-58
2024/04/11 04:39:13;;;;;;;18.10;16.10;;;12.30;99.90;;;;;;5417715;26;20343;-58
2024/04/11 04:41:44;;;;;;;19.27;16.57;;;12.30;99.90;;;;;;5414691;26;20247;-58
2024/04/11 04:44:12;;;;;;;20.90;16.37;;;12.30;99.90;;;;;;5420766;26;20239;-58
2024/04/11 04:46:39;;;;;;;26.97;16.73;;;12.30;99.90;;;;;;5415201;26;20350;-58
2024/04/11 04:49:09;;;;;;;19.87;16.30;;;12.30;99.90;;;;;;5416645;26;20243;-58
2024/04/11 04:51:39;;;;;;;19.57;16.70;;;12.30;99.90;;;;;;5418051;26;20280;-59
2024/04/11 04:54:11;;;;;;;19.47;15.87;;;12.30;99.90;;;;;;5417404;26;20255;-58
2024/04/11 04:56:41;;;;;;;20.73;15.70;;;12.30;99.90;;;;;;5417470;26;20235;-58
2024/04/11 04:59:10;;;;;;;20.07;15.83;;;12.30;99.90;;;;;;5423430;26;20238;-58
2024/04/11 05:01:40;;;;;;;20.23;15.53;;;12.20;99.90;;;;;;5420821;26;20234;-58
2024/04/11 05:04:13;;;;;;;19.80;15.70;;;12.20;99.90;;;;;;5414681;26;20350;-58
2024/04/11 05:06:43;;;;;;;17.83;15.10;;;12.20;99.90;;;;;;5429331;26;20301;-58
2024/04/11 05:09:10;;;;;;;22.17;16.53;;;12.20;99.90;;;;;;5412493;26;21371;-58
2024/04/11 05:11:39;;;;;;;19.10;16.20;;;12.20;99.90;;;;;;5416769;26;20281;-58
2024/04/11 05:14:09;;;;;;;23.47;16.83;;;12.20;99.90;;;;;;5419583;26;20290;-58
2024/04/11 05:16:36;;;;;;;23.03;15.60;;;12.20;99.90;;;;;;5411642;26;20282;-58
2024/04/11 05:19:04;;;;;;;20.87;15.90;;;12.20;99.90;;;;;;5423897;26;20303;-58
2024/04/11 05:21:32;;;;;;;17.47;15.57;;;12.20;99.90;;;;;;5424246;26;20289;-58
2024/04/11 05:24:00;;;;;;;19.47;15.03;;;12.20;99.90;;;;;;5432307;26;20251;-58
2024/04/11 05:26:29;;;;;;;20.00;15.30;;;12.30;99.90;;;;;;5419550;26;20329;-58
2024/04/11 05:28:57;;;;;;;21.57;15.17;;;12.20;99.90;;;;;;5410232;26;20242;-58
2024/04/11 05:31:25;;;;;;;19.23;15.47;;;12.20;99.90;;;;;;5420963;26;20651;-58
2024/04/11 05:33:55;;;;;;;19.90;15.87;;;12.20;99.90;;;;;;5426735;26;20642;-58
2024/04/11 05:36:28;;;;;;;21.30;16.03;;;12.20;99.90;;;;;;5419321;26;20332;-58
2024/04/11 05:38:57;;;;;;;19.87;14.90;;;12.20;99.90;;;;;;5424021;26;20255;-58
2024/04/11 05:41:25;;;;;;;17.13;14.73;;;12.30;99.90;;;;;;5422215;26;20542;-58
2024/04/11 05:43:56;;;;;;;23.03;15.20;;;12.30;99.90;;;;;;5427803;26;20341;-58
2024/04/11 05:46:24;;;;;;;25.17;15.83;;;12.40;99.90;;;;;;5419028;26;20246;-58
2024/04/11 05:48:52;;;;;;;26.00;15.40;;;12.40;99.90;;;;;;5420625;26;20250;-58
2024/04/11 05:51:21;;;;;;;19.80;15.57;;;12.40;99.90;;;;;;5422012;26;20708;-58
2024/04/11 05:53:49;;;;;;;22.27;15.60;;;12.50;99.90;;;;;;5427269;26;20594;-58
2024/04/11 05:56:17;;;;;;;21.23;14.60;;;12.60;99.90;;;;;;5424260;26;20247;-58
2024/04/11 05:58:45;;;;;;;16.87;12.80;;;12.60;99.90;;;;;;5424141;26;20716;-58
2024/04/11 06:01:16;;;;;;;17.63;13.57;;;12.70;99.90;;;;;;5417303;26;20720;-58
2024/04/11 06:03:54;;;;;;;18.83;12.93;;;12.70;99.90;;;;;;5425141;26;20297;-58
2024/04/11 06:06:21;;;;;;;17.10;13.47;;;12.70;99.90;;;;;;5418283;26;20709;-58
2024/04/11 06:08:55;;;;;;;19.77;13.77;;;12.80;99.90;;;;;;5417969;26;20333;-58
2024/04/11 06:11:23;;;;;;;20.33;13.67;;;12.80;99.90;;;;;;5414067;26;20239;-58
2024/04/11 06:13:53;;;;;;;14.53;12.57;;;12.90;99.90;;;;;;5421767;26;20250;-58
2024/04/11 06:16:20;;;;;;;14.43;12.03;;;12.90;99.90;;;;;;5428217;26;20274;-58
2024/04/11 06:18:48;;;;;;;17.63;12.40;;;13.00;99.90;;;;;;5416610;26;20593;-58
2024/04/11 06:21:22;;;;;;;13.63;11.17;;;13.10;99.90;;;;;;5420625;26;20248;-58
2024/04/11 06:23:49;;;;;;;15.53;12.13;;;13.20;99.90;;;;;;5430432;26;20238;-58
2024/04/11 06:26:17;;;;;;;16.27;11.30;;;13.30;99.90;;;;;;5415089;26;20326;-58
2024/04/11 06:28:47;;;;;;;14.90;11.67;;;13.30;99.90;;;;;;5421444;26;20250;-58
2024/04/11 06:31:14;;;;;;;15.00;11.77;;;13.40;99.90;;;;;;5420153;26;20274;-58
2024/04/11 06:33:43;;;;;;;15.00;12.00;;;13.40;99.90;;;;;;5419799;26;20243;-58
2024/04/11 06:36:11;;;;;;;16.83;12.07;;;13.40;99.90;;;;;;5422030;26;20612;-58
2024/04/11 06:38:39;;;;;;;15.00;12.10;;;13.50;99.90;;;;;;5426036;26;21130;-58
2024/04/11 06:41:18;;;;;;;15.57;12.47;;;13.60;99.90;;;;;;5417815;26;20293;-58
2024/04/11 06:43:47;;;;;;;16.37;12.40;;;13.70;99.90;;;;;;5416268;26;20295;-58
2024/04/11 06:46:18;;;;;;;17.40;12.77;;;13.90;99.90;;;;;;5411389;26;20336;-58
2024/04/11 06:48:46;;;;;;;16.63;13.13;;;14.10;99.90;;;;;;5421680;26;20239;-58
2024/04/11 06:51:15;;;;;;;18.17;13.03;;;14.10;99.90;;;;;;5417934;26;20693;-58
2024/04/11 06:53:46;;;;;;;19.50;12.10;;;14.30;99.90;;;;;;5424004;26;20243;-58
2024/04/11 06:56:17;;;;;;;16.57;12.03;;;14.40;99.90;;;;;;5413715;26;20347;-58
2024/04/11 06:58:48;;;;;;;15.00;12.07;;;14.50;99.90;;;;;;5423719;26;20255;-58
2024/04/11 07:01:16;;;;;;;15.30;12.97;;;14.60;99.90;;;;;;5422593;26;20289;-58
2024/04/11 07:03:46;;;;;;;14.63;13.00;;;14.70;99.90;;;;;;5419633;26;20303;-58
2024/04/11 07:06:22;;;;;;;20.57;12.70;;;14.80;99.90;;;;;;5406212;26;20242;-58
2024/04/11 07:08:52;;;;;;;14.90;12.10;;;14.90;99.90;;;;;;5415964;26;20283;-58
2024/04/11 07:11:19;;;;;;;15.03;11.43;;;15.00;99.90;;;;;;5423786;26;20255;-59
2024/04/11 07:13:55;;;;;;;12.23;10.57;;;15.10;99.90;;;;;;5419315;26;20255;-58
2024/04/11 07:16:32;;;;;;;16.43;11.50;;;15.20;99.90;;;;;;5418072;26;20738;-58
2024/04/11 07:19:02;;;;;;;13.57;11.17;;;15.20;99.90;;;;;;5421713;26;20285;-58
2024/04/11 07:21:34;;;;;;;13.00;10.33;;;15.30;99.90;;;;;;5421613;26;20270;-58
2024/04/11 07:24:03;;;;;;;13.67;10.20;;;15.40;99.90;;;;;;5420297;26;20659;-58
2024/04/11 07:26:32;;;;;;;19.70;12.07;;;15.50;99.90;;;;;;5413244;26;20253;-58
2024/04/11 07:29:03;;;;;;;15.13;10.30;;;15.60;99.90;;;;;;5417830;26;20248;-58
2024/04/11 07:31:36;;;;;;;14.60;10.53;;;15.70;99.90;;;;;;5423746;26;20235;-58
2024/04/11 07:34:04;;;;;;;11.83;9.90;;;15.80;99.90;;;;;;5426160;26;20285;-58
2024/04/11 07:36:38;;;;;;;13.60;10.37;;;15.90;99.90;;;;;;5417917;26;20345;-58
2024/04/11 07:39:08;;;;;;;11.73;9.50;;;16.10;99.60;;;;;;5414759;26;20278;-58
2024/04/11 07:41:45;;;;;;;14.73;9.93;;;16.20;99.30;;;;;;5425656;26;20250;-58
2024/04/11 07:44:17;;;;;;;10.77;9.03;;;16.30;99.20;;;;;;5417209;26;20238;-58
2024/04/11 07:46:46;;;;;;;13.83;9.20;;;16.50;99.20;;;;;;5413731;26;20241;-58
2024/04/11 07:49:35;;;;;;;10.03;9.03;;;16.60;99.00;;;;;;5411572;26;20296;-58
2024/04/11 07:52:04;;;;;;;11.37;9.43;;;16.80;98.70;;;;;;5415078;26;20293;-58
2024/04/11 07:54:31;;;;;;;12.53;9.23;;;16.90;98.50;;;;;;5425215;26;20362;-58
2024/04/11 07:57:12;;;;;;;16.93;9.90;;;17.00;98.10;;;;;;5423608;26;20290;-58
2024/04/11 07:59:41;;;;;;;17.43;9.20;;;17.20;97.90;;;;;;5420331;26;20294;-58
2024/04/11 08:02:10;;;;;;;13.43;9.20;;;17.30;97.60;;;;;;5422036;26;20249;-58
2024/04/11 08:04:38;;;;;;;12.47;8.00;;;17.40;97.00;;;;;;5418684;26;20305;-58
2024/04/11 08:07:06;;;;;;;12.93;8.93;;;17.50;97.10;;;;;;5416860;26;20307;-59
2024/04/11 08:09:44;;;;;;;9.93;8.50;;;17.60;96.70;;;;;;5419721;26;20246;-58
2024/04/11 08:12:14;;;;;;;12.37;8.97;;;17.60;96.60;;;;;;5413825;26;20242;-58
2024/04/11 08:14:42;;;;;;;17.50;9.17;;;17.70;96.70;;;;;;5423282;26;20240;-59
2024/04/11 08:17:13;;;;;;;12.93;7.57;;;17.80;96.70;;;;;;5419080;26;20247;-57
2024/04/11 08:19:43;;;;;;;9.60;7.50;;;18.00;96.70;;;;;;5417596;26;20235;-56
2024/04/11 08:22:24;;;;;;;12.30;8.93;;;18.10;96.50;;;;;;5414813;26;20578;-56
2024/04/11 08:24:53;;;;;;;9.63;7.33;;;18.20;96.00;;;;;;5417740;26;20343;-58
2024/04/11 08:27:22;;;;;;;11.43;7.93;;;18.20;95.80;;;;;;5420348;26;20266;-57
2024/04/11 08:29:50;;;;;;;9.17;7.40;;;18.20;95.60;;;;;;5416911;26;20323;-57
2024/04/11 08:32:19;;;;;;;8.67;7.77;;;18.30;95.50;;;;;;5418827;26;20695;-57
2024/04/11 08:34:49;;;;;;;9.67;7.70;;;18.40;95.40;;;;;;5418810;26;20278;-58
2024/04/11 08:37:16;;;;;;;9.10;7.20;;;18.50;95.30;;;;;;5426909;26;20295;-57
2024/04/11 08:39:44;;;;;;;6.20;4.63;;;18.60;95.10;;;;;;5418627;26;20316;-58
2024/04/11 08:42:12;;;;;;;6.00;4.13;;;18.70;94.40;;;;;;5419603;26;20255;-58
2024/04/11 08:44:42;;;;;;;5.70;4.23;;;18.80;94.00;;;;;;5417042;26;20242;-58
2024/04/11 08:47:10;;;;;;;10.50;4.50;;;18.90;92.90;;;;;;5420670;26;20715;-57
2024/04/11 08:49:38;;;;;;;5.90;4.90;;;19.00;91.60;;;;;;5419568;26;20234;-57
2024/04/11 08:52:06;;;;;;;8.43;4.50;;;19.10;91.60;;;;;;5416502;26;20251;-56
2024/04/11 08:54:40;;;;;;;12.07;3.90;;;19.20;91.70;;;;;;5413925;26;20290;-56
2024/04/11 08:57:12;;;;;;;5.00;3.40;;;19.40;91.60;;;;;;5416372;26;20247;-56
2024/04/11 08:59:44;;;;;;;10.30;3.97;;;19.60;91.20;;;;;;5422381;26;20277;-57
2024/04/11 09:02:12;;;;;;;6.17;3.13;;;19.80;90.70;;;;;;5420051;26;20255;-56
2024/04/11 09:04:39;;;;;;;8.07;4.50;;;19.90;90.40;;;;;;5418998;26;20720;-57
2024/04/11 09:07:20;;;;;;;5.43;3.47;;;20.10;90.50;;;;;;5419355;26;20239;-58
2024/04/11 09:09:49;;;;;;;4.43;3.60;;;20.20;90.30;;;;;;5428173;26;20587;-57
2024/04/11 09:12:17;;;;;;;7.40;3.63;;;20.40;88.50;;;;;;5422575;26;20322;-58
2024/04/11 09:14:46;;;;;;;4.93;3.60;;;20.40;88.20;;;;;;5424073;26;20240;-56
2024/04/11 09:17:14;;;;;;;8.50;3.57;;;20.50;88.30;;;;;;5418675;26;20248;-56
2024/04/11 09:19:45;;;;;;;6.90;3.90;;;20.60;86.20;;;;;;5416192;26;20333;-57
2024/04/11 09:22:13;;;;;;;7.43;3.40;;;20.70;86.30;;;;;;5417825;26;20255;-56
2024/04/11 09:24:44;;;;;;;9.83;3.40;;;20.70;86.70;;;;;;5417785;26;20747;-57
2024/04/11 09:27:16;;;;;;;7.27;3.77;;;20.80;85.90;;;;;;5422586;26;20297;-57
2024/04/11 09:29:44;;;;;;;5.90;3.70;;;20.90;85.70;;;;;;5414987;26;20282;-55
2024/04/11 09:32:21;;;;;;;8.60;4.33;;;20.90;85.50;;;;;;5428582;26;20247;-57
2024/04/11 09:34:53;;;;;;;5.90;3.47;;;21.00;84.70;;;;;;5419538;26;20339;-56
2024/04/11 09:37:26;;;;;;;8.37;3.80;;;21.00;85.10;;;;;;5425957;26;20348;-56
2024/04/11 09:39:56;;;;;;;8.73;3.97;;;21.10;83.90;;;;;;5410546;26;20755;-56
2024/04/11 09:42:30;;;;;;;6.47;4.10;;;21.10;83.90;;;;;;5410603;26;20243;-57
2024/04/11 09:45:00;;;;;;;6.20;4.10;;;21.20;83.60;;;;;;5422718;26;20315;-58
2024/04/11 09:47:31;;;;;;;11.43;4.30;;;21.20;83.50;;;;;;5420622;26;20243;-57
2024/04/11 09:50:04;;;;;;;5.60;4.37;;;21.20;82.30;;;;;;5417406;26;20769;-56
2024/04/11 09:52:37;;;;;;;7.33;4.57;;;21.20;82.60;;;;;;5422363;26;20253;-56
2024/04/11 09:55:07;;;;;;;5.57;5.00;;;21.30;83.00;;;;;;5415614;26;20239;-57
2024/04/11 09:57:38;;;;;;;7.20;4.50;;;21.40;82.10;;;;;;5425598;26;20593;-57
2024/04/11 10:00:09;;;;;;;5.97;4.43;;;21.40;83.00;;;;;;5422794;26;20560;-57
2024/04/11 10:02:40;;;;;;;8.60;6.03;;;21.50;83.10;;;;;;5413611;26;20639;-57
2024/04/11 10:05:16;;;;;;;8.40;5.07;;;21.50;83.80;;;;;;5422339;26;20255;-57
2024/04/11 10:07:45;;;;;;;7.93;5.10;;;21.60;83.50;;;;;;5418117;26;20243;-58
2024/04/11 10:10:19;;;;;;;8.27;4.80;;;21.70;82.20;;;;;;5422767;26;20290;-56
2024/04/11 10:12:49;;;;;;;6.40;4.93;;;21.70;81.60;;;;;;5422545;26;20258;-57
2024/04/11 10:15:18;;;;;;;7.00;4.90;;;21.70;81.00;;;;;;5423575;26;21295;-57
2024/04/11 10:17:48;;;;;;;6.67;4.73;;;21.70;80.70;;;;;;5415739;26;20246;-58
2024/04/11 10:20:20;;;;;;;5.93;4.70;;;21.70;81.40;;;;;;5423447;26;20235;-58
2024/04/11 10:22:52;;;;;;;8.63;2.77;;;21.80;82.00;;;;;;5418581;26;20353;-57
2024/04/11 10:25:21;;;;;;;4.80;2.60;;;22.00;80.20;;;;;;5421419;26;20538;-56
2024/04/11 10:27:51;;;;;;;4.57;2.97;;;22.00;77.70;;;;;;5424014;26;20280;-57
2024/04/11 10:30:20;;;;;;;7.00;2.70;;;22.10;77.80;;;;;;5423393;26;20336;-56
2024/04/11 10:32:48;;;;;;;3.40;2.87;;;22.10;77.30;;;;;;5428408;26;20266;-57
2024/04/11 10:35:19;;;;;;;5.83;3.10;;;22.10;77.30;;;;;;5420311;26;20239;-57
2024/04/11 10:37:49;;;;;;;3.40;2.80;;;22.20;77.70;;;;;;5423311;26;20294;-57
2024/04/11 10:40:17;;;;;;;6.53;3.27;;;22.30;76.70;;;;;;5416208;26;20243;-57
2024/04/11 10:45:50;;;;;;;6.00;2.70;;;22.60;75.40;;;;;;5389863;26;20291;-57
2024/04/11 10:48:18;;;;;;;7.90;2.93;;;22.70;74.70;;;;;;5403870;26;20244;-57
2024/04/11 10:50:47;;;;;;;6.73;2.83;;;22.80;73.40;;;;;;5422415;26;20281;-57
2024/04/11 10:53:20;;;;;;;5.73;2.97;;;22.80;72.00;;;;;;5418758;26;20324;-57
2024/04/11 10:55:49;;;;;;;9.00;3.27;;;22.90;72.60;;;;;;5416734;26;20307;-57
2024/04/11 10:58:22;;;;;;;9.23;2.90;;;22.90;71.80;;;;;;5416146;26;20293;-57
2024/04/11 11:03:46;;;;;;;4.33;3.37;;;22.90;71.90;;;;;;5417531;26;20290;-57
2024/04/11 11:06:30;;;;;;;7.27;3.50;;;23.00;72.30;;;;;;5370045;26;20245;-57
2024/04/11 11:09:10;;;;;;;4.60;3.20;;;22.90;69.90;;;;;;5368449;26;20249;-57
2024/04/11 11:11:46;;;;;;;9.67;3.40;;;22.90;71.30;;;;;;5365724;26;20283;-57
2024/04/11 11:14:20;;;;;;;10.27;3.37;;;23.00;71.40;;;;;;5359146;26;20237;-57
2024/04/11 11:16:48;;;;;;;7.53;2.93;;;23.00;71.00;;;;;;5365798;26;20305;-57
2024/04/11 11:19:17;;;;;;;6.33;3.70;;;23.10;70.90;;;;;;5377552;26;20308;-57
2024/04/11 11:21:51;;;;;;;7.67;3.30;;;23.10;72.10;;;;;;5371856;26;20276;-57
2024/04/11 11:24:26;;;;;;;4.83;3.23;;;23.20;71.00;;;;;;5369102;26;20618;-57
2024/04/11 11:26:58;;;;;;;6.47;3.40;;;23.20;70.10;;;;;;5357076;26;20323;-58
2024/04/11 11:29:26;;;;;;;7.17;3.47;;;23.20;67.50;;;;;;5361257;26;20249;-57
2024/04/11 11:32:02;;;;;;;4.13;2.77;;;23.30;68.30;;;;;;5358973;26;20253;-58
2024/04/11 11:34:31;;;;;;;4.83;2.90;;;23.30;68.50;;;;;;5362739;26;20693;-57
2024/04/11 11:37:01;;;;;;;5.20;3.30;;;23.20;68.20;;;;;;5363533;26;20702;-57
2024/04/11 11:39:36;;;;;;;7.20;2.73;;;23.20;69.10;;;;;;5363766;26;20253;-57
2024/04/11 11:47:36;;;;;;;8.23;3.67;;;23.40;69.10;;;;;;5387185;26;20251;-84
2024/04/11 11:50:35;;;;;;;4.07;2.67;;;23.50;69.50;;;;;;5374940;26;20333;-83
2024/04/11 11:54:12;;;;;;;4.00;2.97;;;23.50;68.30;;;;;;5399959;26;20348;-84
2024/04/11 11:56:16;;;;;;;5.80;3.27;;;23.30;68.70;;;;;;5413709;26;20252;-83
2024/04/11 11:58:44;;;;;;;9.90;3.57;;;23.30;69.10;;;;;;5373296;26;20303;-83
2024/04/11 12:01:35;;;;;;;5.43;3.50;;;23.40;69.70;;;;;;5402933;26;20256;-83
2024/04/11 12:04:07;;;;;;;5.73;3.30;;;23.30;67.40;;;;;;5367254;26;20275;-85
2024/04/11 12:06:44;;;;;;;5.20;3.33;;;23.40;67.60;;;;;;5369109;26;20747;-83
2024/04/11 12:09:31;;;;;;;6.67;3.77;;;23.40;67.30;;;;;;5372112;26;20242;-84
2024/04/11 12:12:20;;;;;;;8.63;3.30;;;23.40;67.90;;;;;;5375729;26;20281;-84
2024/04/11 12:16:16;;;;;;;4.57;3.10;;;23.40;68.70;;;;;;5397646;26;20290;-83
2024/04/11 12:19:16;;;;;;;6.73;3.30;;;23.30;68.30;;;;;;5374350;26;20282;-83
2024/04/11 12:21:50;;;;;;;8.83;3.40;;;23.40;68.30;;;;;;5374998;26;20344;-83
2024/04/11 12:24:32;;;;;;;7.17;3.23;;;23.50;68.40;;;;;;5365309;26;20349;-83
2024/04/11 12:27:03;;;;;;;8.83;4.10;;;23.50;66.90;;;;;;5402291;26;20248;-82
2024/04/11 12:29:31;;;;;;;4.97;3.33;;;23.60;67.00;;;;;;5377510;26;20247;-82
2024/04/11 12:32:17;;;;;;;5.03;3.07;;;23.70;67.80;;;;;;5404201;26;20247;-83
2024/04/11 12:35:13;;;;;;;5.03;3.23;;;23.90;67.30;;;;;;5399230;26;20248;-82
2024/04/11 12:37:46;;;;;;;6.73;3.47;;;24.00;66.30;;;;;;5359614;26;20295;-85
2024/04/11 12:40:33;;;;;;;8.97;3.10;;;24.10;65.90;;;;;;5373375;26;20687;-83
2024/04/11 12:43:21;;;;;;;5.90;3.00;;;24.00;64.70;;;;;;5333078;26;20283;-84
2024/04/11 12:45:52;;;;;;;5.67;3.27;;;24.00;64.70;;;;;;5372952;26;20248;-84
2024/04/11 12:48:34;;;;;;;5.93;3.07;;;24.00;65.20;;;;;;5371400;26;20256;-84
2024/04/11 12:51:11;;;;;;;3.97;3.30;;;23.90;66.70;;;;;;5386130;26;20260;-85
2024/04/11 12:53:45;;;;;;;8.10;3.83;;;23.80;66.10;;;;;;5401995;26;20734;-84
2024/04/11 12:56:14;;;;;;;7.80;3.33;;;23.70;65.60;;;;;;5355656;26;20316;-85
2024/04/11 12:58:59;;;;;;;6.10;2.87;;;23.80;65.70;;;;;;5351699;26;20249;-84
2024/04/11 13:01:39;;;;;;;5.90;3.30;;;23.80;66.20;;;;;;5385389;26;20244;-84
2024/04/11 13:04:23;;;;;;;4.97;3.53;;;23.80;66.70;;;;;;5399669;26;20243;-84
2024/04/11 13:07:12;;;;;;;4.33;2.73;;;23.80;64.70;;;;;;5355093;26;20732;-84